createdAt,value
2022-12-18T00:00:34.196Z,68.51
2022-12-18T00:03:57.592Z,68.53
2022-12-18T00:07:00.770Z,68.51
2022-12-18T00:10:04.907Z,68.40
2022-12-18T00:13:10.085Z,68.41
2022-12-18T00:16:19.499Z,68.43
2022-12-18T00:19:22.588Z,68.40
2022-12-18T00:22:25.656Z,68.32
2022-12-18T00:25:28.701Z,68.32
2022-12-18T00:28:32.028Z,68.36
2022-12-18T00:31:35.629Z,68.71
2022-12-18T00:34:38.830Z,68.37
2022-12-18T00:37:41.826Z,68.38
2022-12-18T00:40:46.849Z,68.51
2022-12-18T00:43:49.866Z,68.51
2022-12-18T00:46:52.941Z,68.53
2022-12-18T00:49:56.056Z,68.49
2022-12-18T00:52:59.095Z,68.16
2022-12-18T00:56:02.133Z,68.44
2022-12-18T00:59:05.810Z,68.47
2022-12-18T01:02:08.885Z,68.42
2022-12-18T01:05:14.137Z,68.31
2022-12-18T01:08:17.209Z,68.34
2022-12-18T01:11:21.659Z,68.16
2022-12-18T01:14:24.859Z,68.28
2022-12-18T01:17:29.703Z,68.29
2022-12-18T01:20:33.191Z,68.42
2022-12-18T01:23:36.709Z,68.35
2022-12-18T01:26:39.949Z,68.25
2022-12-18T01:29:43.533Z,68.19
2022-12-18T01:32:46.559Z,68.34
2022-12-18T01:35:49.594Z,68.34
2022-12-18T01:38:53.462Z,68.28
2022-12-18T01:42:05.524Z,68.24
2022-12-18T01:45:14.732Z,68.22
2022-12-18T01:48:19.498Z,68.10
2022-12-18T01:51:22.814Z,68.10
2022-12-18T01:54:28.612Z,68.15
2022-12-18T01:59:19.998Z,68.26
2022-12-18T02:02:23.416Z,68.10
2022-12-18T02:05:36.202Z,68.44
2022-12-18T02:08:48.563Z,68.22
2022-12-18T02:12:19.266Z,68.25
2022-12-18T02:15:37.147Z,68.26
2022-12-18T02:18:46.311Z,68.22
2022-12-18T02:22:07.933Z,68.17
2022-12-18T02:25:14.102Z,68.07
2022-12-18T02:28:19.641Z,68.21
2022-12-18T02:31:28.805Z,68.00
2022-12-18T02:34:37.062Z,68.23
2022-12-18T02:37:43.016Z,68.10
2022-12-18T02:40:47.351Z,68.28
2022-12-18T02:43:59.927Z,68.29
2022-12-18T02:47:04.350Z,68.11
2022-12-18T02:50:23.653Z,68.16
2022-12-18T02:53:52.514Z,68.35
2022-12-18T02:56:59.220Z,68.15
2022-12-18T03:00:07.396Z,68.10
2022-12-18T03:03:22.634Z,68.18
2022-12-18T03:06:40.752Z,68.03
2022-12-18T03:09:48.789Z,68.13
2022-12-18T03:13:09.079Z,68.21
2022-12-18T03:16:20.302Z,68.31
2022-12-18T03:19:27.799Z,68.01
2022-12-18T03:22:35.494Z,68.39
2022-12-18T03:25:45.159Z,68.14
2022-12-18T03:28:55.396Z,68.02
2022-12-18T03:32:09.548Z,68.19
2022-12-18T03:35:22.376Z,68.20
2022-12-18T03:38:25.896Z,68.33
2022-12-18T03:41:46.005Z,68.13
2022-12-18T03:45:19.827Z,68.13
2022-12-18T03:48:40.252Z,68.25
2022-12-18T03:51:51.346Z,68.16
2022-12-18T03:54:57.703Z,68.21
2022-12-18T03:58:04.583Z,68.02
2022-12-18T04:01:17.933Z,68.16
2022-12-18T04:04:22.662Z,68.11
2022-12-18T04:07:26.333Z,67.98
2022-12-18T04:10:30.150Z,67.83
2022-12-18T04:13:37.561Z,68.03
2022-12-18T04:16:43.868Z,67.92
2022-12-18T04:19:48.881Z,67.89
2022-12-18T04:22:52.580Z,68.20
2022-12-18T04:25:56.224Z,68.07
2022-12-18T04:29:12.729Z,67.97
2022-12-18T04:32:16.031Z,67.91
2022-12-18T04:35:19.739Z,67.77
2022-12-18T04:38:23.645Z,68.03
2022-12-18T04:41:30.691Z,67.89
2022-12-18T04:44:34.485Z,68.11
2022-12-18T04:47:37.604Z,67.92
2022-12-18T04:50:40.616Z,67.79
2022-12-18T04:53:44.177Z,68.00
2022-12-18T04:56:47.257Z,67.79
2022-12-18T04:59:50.530Z,67.82
2022-12-18T05:02:53.616Z,67.79
2022-12-18T05:05:56.792Z,67.70
2022-12-18T05:08:59.863Z,67.86
2022-12-18T05:12:02.876Z,68.01
2022-12-18T05:15:06.556Z,67.85
2022-12-18T05:18:09.800Z,67.78
2022-12-18T05:21:12.862Z,67.98
2022-12-18T05:24:15.973Z,67.83
2022-12-18T05:27:21.614Z,67.88
2022-12-18T05:30:24.719Z,67.92
2022-12-18T05:33:30.867Z,67.88
2022-12-18T05:36:33.912Z,67.64
2022-12-18T05:39:36.967Z,67.75
2022-12-18T05:42:39.987Z,67.89
2022-12-18T05:45:43.353Z,67.70
2022-12-18T05:48:46.540Z,67.58
2022-12-18T05:51:49.571Z,67.81
2022-12-18T05:54:52.620Z,67.70
2022-12-18T05:57:55.711Z,67.80
2022-12-18T06:01:06.579Z,67.51
2022-12-18T06:04:09.663Z,67.63
2022-12-18T06:07:12.833Z,67.62
2022-12-18T06:10:18.508Z,67.58
2022-12-18T06:13:22.075Z,67.71
2022-12-18T06:16:25.344Z,67.81
2022-12-18T06:19:28.548Z,67.61
2022-12-18T06:22:33.197Z,67.57
2022-12-18T06:25:39.713Z,67.64
2022-12-18T06:28:43.090Z,67.32
2022-12-18T06:31:46.694Z,67.65
2022-12-18T06:34:49.882Z,67.71
2022-12-18T06:37:52.999Z,67.64
2022-12-18T06:40:56.076Z,67.61
2022-12-18T06:44:00.083Z,67.43
2022-12-18T06:47:03.878Z,67.51
2022-12-18T06:50:12.617Z,67.50
2022-12-18T06:53:18.832Z,67.26
2022-12-18T06:56:22.157Z,67.41
2022-12-18T06:59:25.441Z,67.44
2022-12-18T07:02:29.543Z,67.38
2022-12-18T07:05:32.737Z,67.40
2022-12-18T07:08:35.868Z,67.40
2022-12-18T07:11:39.163Z,67.52
2022-12-18T07:14:42.332Z,67.14
2022-12-18T07:17:45.397Z,67.08
2022-12-18T07:20:48.461Z,67.25
2022-12-18T07:23:52.179Z,67.02
2022-12-18T07:26:55.519Z,67.20
2022-12-18T07:29:58.563Z,66.94
2022-12-18T07:33:01.690Z,67.05
2022-12-18T07:36:06.978Z,67.02
2022-12-18T07:39:12.524Z,66.84
2022-12-18T07:42:33.917Z,66.86
2022-12-18T07:45:37.358Z,66.72
2022-12-18T07:48:49.307Z,66.62
2022-12-18T07:51:58.527Z,66.54
2022-12-18T07:55:01.542Z,66.64
2022-12-18T07:58:05.378Z,66.53
2022-12-18T08:01:10.968Z,66.46
2022-12-18T08:04:14.673Z,66.60
2022-12-18T08:07:17.921Z,66.42
2022-12-18T08:10:21.845Z,66.06
2022-12-18T08:13:26.055Z,66.31
2022-12-18T08:16:29.540Z,65.88
2022-12-18T08:19:32.622Z,65.88
2022-12-18T08:22:38.951Z,65.58
2022-12-18T08:25:41.978Z,65.48
2022-12-18T08:28:45.547Z,65.24
2022-12-18T08:31:48.781Z,65.12
2022-12-18T08:34:51.939Z,65.18
2022-12-18T08:37:55.195Z,64.78
2022-12-18T08:41:07.069Z,64.80
2022-12-18T08:44:28.767Z,64.79
2022-12-18T08:47:32.181Z,64.74
2022-12-18T08:50:35.313Z,64.78
2022-12-18T08:53:39.075Z,64.45
2022-12-18T08:56:42.365Z,64.56
2022-12-18T08:59:45.517Z,64.62
2022-12-18T09:02:51.532Z,64.53
2022-12-18T09:05:54.816Z,64.71
2022-12-18T09:08:58.594Z,64.76
2022-12-18T09:12:04.757Z,64.95
2022-12-18T09:15:08.087Z,64.96
2022-12-18T09:18:11.178Z,65.02
2022-12-18T09:21:21.772Z,64.88
2022-12-18T09:24:24.881Z,65.10
2022-12-18T09:27:28.279Z,64.99
2022-12-18T09:30:31.835Z,64.75
2022-12-18T09:33:37.189Z,64.74
2022-12-18T09:36:40.730Z,64.56
2022-12-18T09:39:43.816Z,64.79
2022-12-18T09:42:52.533Z,64.61
2022-12-18T09:46:12.623Z,64.57
2022-12-18T09:49:19.849Z,64.25
2022-12-18T09:52:26.889Z,64.64
2022-12-18T09:55:37.525Z,64.40
2022-12-18T09:58:51.193Z,64.41
2022-12-18T10:01:54.431Z,64.33
2022-12-18T10:05:04.053Z,64.24
2022-12-18T10:08:17.449Z,64.27
2022-12-18T10:11:49.053Z,64.09
2022-12-18T10:15:08.004Z,64.26
2022-12-18T10:18:25.503Z,64.27
2022-12-18T10:21:38.689Z,63.98
2022-12-18T10:24:54.247Z,64.09
2022-12-18T10:28:01.534Z,64.18
2022-12-18T10:31:15.507Z,64.22
2022-12-18T10:34:18.956Z,64.17
2022-12-18T10:37:25.190Z,64.14
2022-12-18T10:40:28.307Z,63.98
2022-12-18T10:43:32.387Z,64.15
2022-12-18T10:46:35.788Z,63.69
2022-12-18T10:49:49.483Z,63.85
2022-12-18T10:52:59.214Z,63.95
2022-12-18T10:56:05.144Z,63.66
2022-12-18T10:59:11.710Z,63.70
2022-12-18T11:02:38.501Z,63.54
2022-12-18T11:05:41.794Z,63.14
2022-12-18T11:08:58.484Z,63.31
2022-12-18T11:12:04.905Z,63.19
2022-12-18T11:15:28.987Z,63.06
2022-12-18T11:18:36.991Z,63.37
2022-12-18T11:21:42.593Z,63.33
2022-12-18T11:25:29.645Z,63.08
2022-12-18T11:28:42.624Z,63.17
2022-12-18T11:31:46.162Z,63.28
2022-12-18T11:34:59.153Z,63.14
2022-12-18T11:38:08.344Z,63.18
2022-12-18T11:41:45.591Z,63.07
2022-12-18T11:44:55.665Z,63.16
2022-12-18T11:48:07.858Z,63.38
2022-12-18T11:51:19.843Z,63.20
2022-12-18T11:54:22.955Z,62.94
2022-12-18T11:57:50.001Z,62.87
2022-12-18T12:01:04.582Z,62.63
2022-12-18T12:04:32.192Z,62.75
2022-12-18T12:08:10.768Z,62.75
2022-12-18T12:11:13.716Z,62.84
2022-12-18T12:14:44.085Z,62.62
2022-12-18T12:18:22.382Z,62.90
2022-12-18T12:21:25.360Z,63.08
2022-12-18T12:24:39.334Z,63.12
2022-12-18T12:28:11.790Z,63.03
2022-12-18T12:31:43.183Z,63.13
2022-12-18T12:35:09.872Z,63.20
2022-12-18T12:38:26.379Z,63.35
2022-12-18T12:41:52.888Z,63.18
2022-12-18T12:44:59.595Z,63.22
2022-12-18T12:48:05.211Z,62.98
2022-12-18T12:51:15.011Z,62.78
2022-12-18T12:54:25.823Z,62.91
2022-12-18T12:57:38.016Z,62.96
2022-12-18T13:00:52.747Z,62.76
2022-12-18T13:04:12.875Z,62.70
2022-12-18T13:07:33.542Z,62.87
2022-12-18T13:10:42.086Z,62.70
2022-12-18T13:13:56.784Z,62.57
2022-12-18T13:17:16.413Z,62.52
2022-12-18T13:20:19.570Z,62.61
2022-12-18T13:23:34.201Z,62.35
2022-12-18T13:26:37.323Z,62.44
2022-12-18T13:29:45.875Z,62.49
2022-12-18T13:32:48.986Z,62.35
2022-12-18T13:35:53.870Z,62.19
2022-12-18T13:39:18.527Z,62.13
2022-12-18T13:42:58.897Z,61.86
2022-12-18T13:46:21.502Z,61.68
2022-12-18T13:49:24.587Z,61.85
2022-12-18T13:52:37.460Z,62.12
2022-12-18T13:55:53.677Z,62.21
2022-12-18T13:59:34.213Z,62.27
2022-12-18T14:02:37.501Z,62.26
2022-12-18T14:05:42.899Z,62.50
2022-12-18T14:08:48.140Z,62.54
2022-12-18T14:11:52.948Z,62.61
2022-12-18T14:14:56.884Z,62.75
2022-12-18T14:18:20.035Z,62.63
2022-12-18T14:21:27.264Z,62.71
2022-12-18T14:24:31.407Z,62.46
2022-12-18T14:27:39.128Z,62.61
2022-12-18T14:30:45.164Z,62.48
2022-12-18T14:33:48.546Z,62.45
2022-12-18T14:36:56.329Z,61.77
2022-12-18T14:40:13.993Z,61.37
2022-12-18T14:43:22.189Z,61.14
2022-12-18T14:46:34.320Z,61.14
2022-12-18T14:49:38.242Z,61.17
2022-12-18T14:52:42.040Z,61.01
2022-12-18T14:55:48.714Z,60.90
2022-12-18T14:58:54.415Z,60.55
2022-12-18T15:02:09.677Z,60.46
2022-12-18T15:05:14.590Z,60.40
2022-12-18T15:08:35.743Z,60.42
2022-12-18T15:11:41.858Z,59.98
2022-12-18T15:14:45.007Z,60.05
2022-12-18T15:17:48.197Z,59.87
2022-12-18T15:20:56.278Z,59.71
2022-12-18T15:23:59.631Z,59.61
2022-12-18T15:27:02.821Z,59.52
2022-12-18T15:30:09.009Z,59.57
2022-12-18T15:33:43.422Z,59.54
2022-12-18T15:36:47.045Z,59.46
2022-12-18T15:39:50.155Z,59.53
2022-12-18T15:43:17.249Z,59.33
2022-12-18T15:46:23.738Z,59.14
2022-12-18T15:49:27.064Z,59.04
2022-12-18T15:52:30.241Z,59.07
2022-12-18T15:55:54.232Z,58.82
2022-12-18T15:59:00.261Z,58.78
2022-12-18T16:02:05.777Z,59.03
2022-12-18T16:05:16.282Z,58.71
2022-12-18T16:08:27.779Z,58.50
2022-12-18T16:11:39.569Z,58.45
2022-12-18T16:14:43.823Z,58.37
2022-12-18T16:17:48.128Z,58.31
2022-12-18T16:20:51.968Z,58.33
2022-12-18T16:23:55.161Z,58.35
2022-12-18T16:27:00.432Z,59.16
2022-12-18T16:30:04.504Z,58.48
2022-12-18T16:33:08.666Z,58.40
2022-12-18T16:36:11.860Z,58.33
2022-12-18T16:39:15.070Z,58.31
2022-12-18T16:42:20.800Z,58.46
2022-12-18T16:45:24.084Z,58.58
2022-12-18T16:48:30.123Z,58.38
2022-12-18T16:51:33.395Z,58.14
2022-12-18T16:54:36.938Z,58.31
2022-12-18T16:57:40.114Z,57.91
2022-12-18T17:00:43.195Z,57.83
2022-12-18T17:03:53.109Z,57.77
2022-12-18T17:06:56.198Z,57.90
2022-12-18T17:09:59.285Z,57.92
2022-12-18T17:13:02.464Z,57.95
2022-12-18T17:16:07.326Z,57.88
2022-12-18T17:19:16.795Z,57.84
2022-12-18T17:22:23.420Z,57.89
2022-12-18T17:25:26.757Z,57.94
2022-12-18T17:28:30.828Z,58.17
2022-12-18T17:31:34.841Z,58.14
2022-12-18T17:34:38.927Z,57.92
2022-12-18T17:37:43.484Z,57.77
2022-12-18T17:40:46.817Z,57.75
2022-12-18T17:43:55.396Z,60.08
2022-12-18T17:46:58.764Z,59.99
2022-12-18T17:50:01.941Z,59.15
2022-12-18T17:53:05.086Z,58.45
2022-12-18T17:56:13.824Z,58.38
2022-12-18T17:59:16.880Z,58.19
2022-12-18T18:02:20.256Z,58.13
2022-12-18T18:05:31.092Z,58.20
2022-12-18T18:08:36.081Z,58.05
2022-12-18T18:11:57.498Z,58.03
2022-12-18T18:15:06.179Z,58.02
2022-12-18T18:18:09.918Z,58.03
2022-12-18T18:21:50.354Z,58.31
2022-12-18T18:25:15.136Z,58.46
2022-12-18T18:28:18.527Z,58.28
2022-12-18T18:31:41.748Z,58.31
2022-12-18T18:34:45.138Z,58.20
2022-12-18T18:37:49.094Z,58.23
2022-12-18T18:41:02.870Z,58.21
2022-12-18T18:44:09.923Z,58.05
2022-12-18T18:47:14.234Z,58.58
2022-12-18T18:50:17.460Z,58.39
2022-12-18T18:53:20.553Z,58.47
2022-12-18T18:56:56.132Z,58.45
2022-12-18T18:59:58.362Z,58.32
2022-12-18T19:03:14.198Z,58.13
2022-12-18T19:06:27.943Z,58.11
2022-12-18T19:09:55.543Z,58.08
2022-12-18T19:13:23.236Z,58.32
2022-12-18T19:16:29.655Z,58.47
2022-12-18T19:19:33.073Z,59.24
2022-12-18T19:22:36.343Z,59.84
2022-12-18T19:30:17.057Z,59.40
2022-12-18T19:37:08.076Z,58.52
2022-12-18T19:40:19.371Z,58.49
2022-12-18T19:43:38.588Z,58.58
2022-12-18T19:53:19.741Z,59.69
2022-12-18T19:56:31.275Z,60.22
2022-12-18T19:59:42.982Z,60.76
2022-12-18T20:02:46.469Z,60.72
2022-12-18T20:05:50.522Z,60.88
2022-12-18T20:09:01.355Z,60.83
2022-12-18T20:12:08.892Z,61.08
2022-12-18T20:15:11.262Z,60.91
2022-12-18T20:18:13.174Z,61.08
2022-12-18T20:21:15.740Z,60.94
2022-12-18T20:24:28.424Z,61.10
2022-12-18T20:27:30.587Z,61.24
2022-12-18T20:30:33.552Z,61.04
2022-12-18T20:33:40.133Z,61.17
2022-12-18T20:36:45.919Z,61.27
2022-12-18T20:40:15.514Z,61.29
2022-12-18T20:47:40.172Z,61.25
2022-12-18T20:57:02.847Z,60.78
2022-12-18T21:00:07.509Z,60.52
2022-12-18T21:08:15.504Z,60.10
2022-12-18T21:26:22.936Z,59.22
2022-12-18T21:29:26.276Z,59.01
2022-12-18T21:32:29.389Z,58.88
2022-12-18T21:35:37.271Z,58.68
2022-12-18T21:38:39.022Z,58.44
2022-12-18T21:41:59.432Z,58.21
2022-12-18T21:45:01.575Z,58.43
2022-12-18T21:48:03.926Z,58.55
2022-12-18T21:51:05.774Z,58.45
2022-12-18T21:54:08.537Z,58.70
2022-12-18T21:57:12.727Z,58.72
2022-12-18T22:00:18.438Z,58.73
2022-12-18T22:03:21.824Z,58.90
2022-12-18T22:06:23.648Z,58.81
2022-12-18T22:09:25.452Z,58.63
2022-12-18T22:12:42.886Z,58.55
2022-12-18T22:15:46.363Z,58.57
2022-12-18T22:18:48.115Z,58.64
2022-12-18T22:21:50.353Z,58.59
2022-12-18T22:24:52.061Z,58.71
2022-12-18T22:28:12.367Z,58.75
2022-12-18T22:31:14.278Z,58.60
2022-12-18T22:34:19.370Z,58.73
2022-12-18T22:37:23.637Z,58.74
2022-12-18T22:40:26.511Z,59.07
2022-12-18T22:43:28.412Z,58.82
2022-12-18T22:46:32.590Z,59.05
2022-12-18T22:49:35.381Z,59.31
2022-12-18T22:52:37.773Z,59.47
2022-12-18T22:55:39.471Z,59.45
2022-12-18T22:58:41.187Z,59.63
2022-12-18T23:01:43.426Z,59.94
2022-12-18T23:04:48.224Z,60.40
2022-12-18T23:07:49.858Z,60.76
2022-12-18T23:10:52.753Z,60.76
2022-12-18T23:13:55.167Z,60.92
2022-12-18T23:16:59.281Z,61.04
2022-12-18T23:20:01.164Z,61.25
2022-12-18T23:23:02.812Z,61.53
2022-12-18T23:26:13.475Z,61.63
2022-12-18T23:29:15.195Z,61.56
2022-12-18T23:32:16.934Z,61.52
2022-12-18T23:35:18.749Z,61.62
2022-12-18T23:38:20.433Z,61.65
2022-12-18T23:41:24.913Z,61.84
2022-12-18T23:44:27.092Z,61.88
2022-12-18T23:47:29.670Z,61.83
2022-12-18T23:50:34.674Z,62.00
2022-12-18T23:53:36.756Z,62.12
2022-12-18T23:56:38.459Z,62.38
2022-12-18T23:59:40.196Z,62.28
